Time;durP1;ratioP1;P1;durP2;ratioP2;P2;SDS_P1;SDS_P2;PMS_P1;PMS_P2;Temp;Humidity;BMP_temperature;BMP_pressure;BME280_temperature;BME280_humidity;BME280_pressure;Samples;Min_cycle;Max_cycle;Signal;HPM_P1;HPM_P2
2023/08/04 00:00:23;;;;;;;1.45;0.57;;;;;;;;;;5015684;28;20053;-80
2023/08/04 00:02:50;;;;;;;0.93;0.50;;;;;;;;;;5029773;28;20052;-83
2023/08/04 00:05:16;;;;;;;1.85;0.52;;;;;;;;;;5015949;28;20076;-81
2023/08/04 00:07:43;;;;;;;1.17;0.57;;;;;;;;;;5020420;28;20124;-79
2023/08/04 00:10:10;;;;;;;1.42;0.68;;;;;;;;;;5021647;28;24524;-80
2023/08/04 00:12:36;;;;;;;0.85;0.60;;;;;;;;;;5023988;28;20042;-79
2023/08/04 00:15:03;;;;;;;1.20;0.50;;;;;;;;;;5030324;28;20045;-81
2023/08/04 00:17:30;;;;;;;2.78;0.50;;;;;;;;;;5023482;28;20064;-80
2023/08/04 00:19:57;;;;;;;0.80;0.40;;;;;;;;;;5015871;28;20049;-80
2023/08/04 00:22:23;;;;;;;1.63;0.60;;;;;;;;;;5050495;28;20045;-81
2023/08/04 00:24:50;;;;;;;1.23;0.57;;;;;;;;;;5056170;28;20049;-83
2023/08/04 00:27:17;;;;;;;2.70;0.70;;;;;;;;;;5054066;28;20049;-81
2023/08/04 00:29:44;;;;;;;2.05;0.60;;;;;;;;;;5033979;28;20045;-81
2023/08/04 00:32:10;;;;;;;2.25;0.60;;;;;;;;;;5051380;28;20045;-82
2023/08/04 00:34:37;;;;;;;1.25;0.40;;;;;;;;;;5057050;28;20761;-82
2023/08/04 00:37:03;;;;;;;2.35;0.40;;;;;;;;;;5054006;28;20063;-81
2023/08/04 00:39:30;;;;;;;1.73;0.57;;;;;;;;;;5054657;28;20565;-79
2023/08/04 00:41:57;;;;;;;2.17;0.73;;;;;;;;;;5040280;28;20045;-81
2023/08/04 00:44:23;;;;;;;0.93;0.50;;;;;;;;;;5052911;28;20049;-80
2023/08/04 00:46:50;;;;;;;0.85;0.40;;;;;;;;;;5035789;28;20052;-80
2023/08/04 00:49:18;;;;;;;2.97;0.60;;;;;;;;;;5054510;28;20110;-80
2023/08/04 00:51:45;;;;;;;1.80;0.63;;;;;;;;;;5033630;28;20049;-80
2023/08/04 00:54:12;;;;;;;2.22;0.63;;;;;;;;;;5048827;28;20411;-81
2023/08/04 00:56:39;;;;;;;1.50;0.63;;;;;;;;;;5047215;28;20041;-80
2023/08/04 00:59:06;;;;;;;1.67;0.50;;;;;;;;;;5015390;28;20119;-81
2023/08/04 01:01:33;;;;;;;0.70;0.45;;;;;;;;;;4998462;28;20047;-80
2023/08/04 01:03:59;;;;;;;2.88;0.60;;;;;;;;;;5024201;28;20049;-79
2023/08/04 01:06:42;;;;;;;2.08;0.70;;;;;;;;;;5029318;28;20042;-80
2023/08/04 01:09:25;;;;;;;1.23;0.57;;;;;;;;;;5031502;28;20041;-80
2023/08/04 01:11:55;;;;;;;2.20;0.60;;;;;;;;;;5023121;28;20159;-80
2023/08/04 01:14:23;;;;;;;2.28;0.50;;;;;;;;;;5007248;28;20045;-80
2023/08/04 01:16:50;;;;;;;3.25;0.73;;;;;;;;;;5037436;28;20056;-81
2023/08/04 01:19:16;;;;;;;2.85;0.52;;;;;;;;;;5049629;28;20036;-79
2023/08/04 01:21:43;;;;;;;1.25;0.50;;;;;;;;;;5034767;28;20055;-82
2023/08/04 01:24:10;;;;;;;1.13;0.68;;;;;;;;;;5036148;28;20101;-81
2023/08/04 01:26:41;;;;;;;2.70;0.43;;;;;;;;;;5048055;28;20037;-80
2023/08/04 01:29:09;;;;;;;2.65;0.60;;;;;;;;;;5031646;28;20041;-80
2023/08/04 01:31:37;;;;;;;1.73;0.40;;;;;;;;;;5052787;28;20049;-78
2023/08/04 01:34:03;;;;;;;1.20;0.50;;;;;;;;;;5037728;28;20044;-82
2023/08/04 01:36:30;;;;;;;1.77;0.50;;;;;;;;;;5046677;28;20404;-81
2023/08/04 01:38:58;;;;;;;2.50;0.60;;;;;;;;;;5047605;28;20037;-82
2023/08/04 01:41:25;;;;;;;5.68;0.80;;;;;;;;;;5053314;28;20102;-80
2023/08/04 01:43:51;;;;;;;1.23;0.50;;;;;;;;;;5054312;28;20063;-80
2023/08/04 01:46:18;;;;;;;1.25;0.60;;;;;;;;;;5032731;28;20049;-80
2023/08/04 01:48:45;;;;;;;3.08;0.50;;;;;;;;;;5048484;28;20117;-81
2023/08/04 01:51:11;;;;;;;3.58;0.60;;;;;;;;;;5029369;28;20128;-81
2023/08/04 01:53:38;;;;;;;3.20;0.65;;;;;;;;;;5049880;28;20157;-81
2023/08/04 01:56:04;;;;;;;2.15;0.70;;;;;;;;;;5016284;28;20038;-80
2023/08/04 01:58:31;;;;;;;2.45;0.52;;;;;;;;;;5032779;28;20193;-81
2023/08/04 02:00:58;;;;;;;2.47;0.70;;;;;;;;;;5030629;28;20075;-81
2023/08/04 02:03:24;;;;;;;3.05;0.60;;;;;;;;;;5018930;28;20050;-81
2023/08/04 02:05:53;;;;;;;0.98;0.40;;;;;;;;;;5017054;28;20048;-80
2023/08/04 02:08:20;;;;;;;2.63;0.80;;;;;;;;;;5011412;28;20038;-81
2023/08/04 02:10:48;;;;;;;3.47;0.70;;;;;;;;;;5024010;28;20048;-81
2023/08/04 02:13:14;;;;;;;1.50;0.70;;;;;;;;;;5009153;28;20532;-79
2023/08/04 02:15:41;;;;;;;3.80;0.85;;;;;;;;;;5042978;28;20041;-79
2023/08/04 02:18:12;;;;;;;2.35;0.60;;;;;;;;;;5050799;28;20041;-80
2023/08/04 02:20:38;;;;;;;3.03;0.60;;;;;;;;;;5023528;28;20133;-79
2023/08/04 02:23:05;;;;;;;1.13;0.60;;;;;;;;;;5050673;28;20423;-80
2023/08/04 02:25:31;;;;;;;1.75;0.77;;;;;;;;;;5030828;28;20045;-79
2023/08/04 02:27:58;;;;;;;2.05;0.68;;;;;;;;;;5049993;28;20609;-80
2023/08/04 02:30:25;;;;;;;3.63;0.68;;;;;;;;;;5014474;28;20431;-80
2023/08/04 02:32:53;;;;;;;2.72;0.77;;;;;;;;;;5052424;28;20037;-80
2023/08/04 02:35:20;;;;;;;1.67;0.70;;;;;;;;;;5050874;28;20053;-80
2023/08/04 02:37:47;;;;;;;1.23;0.60;;;;;;;;;;5052315;28;20687;-82
2023/08/04 02:40:13;;;;;;;0.95;0.68;;;;;;;;;;5053826;28;20044;-81
2023/08/04 02:42:40;;;;;;;2.38;0.50;;;;;;;;;;5032789;28;20079;-81
2023/08/04 02:45:07;;;;;;;1.80;0.75;;;;;;;;;;5032839;28;20049;-79
2023/08/04 02:47:36;;;;;;;3.35;0.60;;;;;;;;;;5035305;28;20384;-81
2023/08/04 02:50:04;;;;;;;1.55;0.68;;;;;;;;;;5009271;28;20052;-80
2023/08/04 02:52:31;;;;;;;2.45;0.70;;;;;;;;;;5034143;28;20592;-82
2023/08/04 02:54:57;;;;;;;2.70;0.60;;;;;;;;;;5032073;28;20049;-81
2023/08/04 02:57:30;;;;;;;2.20;0.70;;;;;;;;;;5050359;28;20060;-80
2023/08/04 02:59:58;;;;;;;1.90;0.80;;;;;;;;;;5052569;28;20799;-81
2023/08/04 03:02:25;;;;;;;1.70;0.60;;;;;;;;;;5050251;28;20080;-80
2023/08/04 03:04:51;;;;;;;2.20;0.65;;;;;;;;;;5052052;28;20037;-80
2023/08/04 03:07:18;;;;;;;1.50;0.70;;;;;;;;;;5030358;28;20101;-80
2023/08/04 03:09:45;;;;;;;1.33;0.63;;;;;;;;;;5029866;28;20037;-80
2023/08/04 03:12:11;;;;;;;2.42;0.63;;;;;;;;;;5030809;28;20044;-80
2023/08/04 03:14:38;;;;;;;1.20;0.65;;;;;;;;;;5034222;28;20048;-79
2023/08/04 03:17:04;;;;;;;1.45;0.70;;;;;;;;;;5050755;28;20052;-80
2023/08/04 03:19:31;;;;;;;1.13;0.70;;;;;;;;;;5050806;28;20045;-79
2023/08/04 03:21:58;;;;;;;1.80;0.60;;;;;;;;;;5053924;28;20041;-79
2023/08/04 03:24:24;;;;;;;1.90;0.60;;;;;;;;;;5049122;28;20452;-78
2023/08/04 03:26:51;;;;;;;2.70;0.80;;;;;;;;;;5048706;28;20091;-80
2023/08/04 03:29:17;;;;;;;2.70;0.77;;;;;;;;;;5049463;28;20044;-82
2023/08/04 03:31:44;;;;;;;1.10;0.70;;;;;;;;;;5052623;28;20495;-79
2023/08/04 03:34:11;;;;;;;1.25;0.70;;;;;;;;;;5052796;28;20051;-80
2023/08/04 03:36:38;;;;;;;0.52;0.50;;;;;;;;;;5022271;28;20466;-80
2023/08/04 03:39:05;;;;;;;1.80;0.73;;;;;;;;;;5033005;28;20049;-79
2023/08/04 03:41:32;;;;;;;1.88;0.82;;;;;;;;;;5038304;28;20081;-81
2023/08/04 03:43:58;;;;;;;1.88;0.70;;;;;;;;;;5050114;28;20534;-81
2023/08/04 03:46:25;;;;;;;1.13;0.63;;;;;;;;;;5047972;28;20057;-81
2023/08/04 03:48:52;;;;;;;2.00;0.73;;;;;;;;;;5031261;28;20045;-79
2023/08/04 03:51:19;;;;;;;2.75;1.00;;;;;;;;;;5030810;28;20052;-79
2023/08/04 03:53:46;;;;;;;2.63;0.70;;;;;;;;;;5050036;28;20049;-82
2023/08/04 03:56:13;;;;;;;5.00;0.90;;;;;;;;;;5046522;28;20048;-80
2023/08/04 03:58:39;;;;;;;2.45;1.10;;;;;;;;;;5041835;28;20114;-79
2023/08/04 04:01:06;;;;;;;2.45;0.80;;;;;;;;;;5048951;28;20045;-78
2023/08/04 04:03:32;;;;;;;5.78;0.90;;;;;;;;;;5047926;28;20072;-79
2023/08/04 04:05:59;;;;;;;1.58;0.80;;;;;;;;;;5047426;28;20144;-80
2023/08/04 04:08:26;;;;;;;2.10;1.08;;;;;;;;;;5046779;28;20037;-79
2023/08/04 04:10:55;;;;;;;1.80;0.70;;;;;;;;;;5030108;28;20045;-81
2023/08/04 04:13:24;;;;;;;3.67;0.90;;;;;;;;;;5031009;28;20060;-81
2023/08/04 04:15:50;;;;;;;1.85;0.75;;;;;;;;;;5030751;28;20560;-79
2023/08/04 04:18:17;;;;;;;4.30;0.85;;;;;;;;;;5048015;28;20041;-81
2023/08/04 04:20:44;;;;;;;2.35;0.90;;;;;;;;;;5049195;28;20045;-79
2023/08/04 04:23:10;;;;;;;1.63;0.75;;;;;;;;;;5028328;28;20590;-81
2023/08/04 04:25:37;;;;;;;3.90;0.80;;;;;;;;;;5034896;28;20061;-78
2023/08/04 04:28:03;;;;;;;4.05;0.73;;;;;;;;;;5030497;28;20063;-80
2023/08/04 04:30:30;;;;;;;2.20;0.90;;;;;;;;;;5047130;28;20407;-81
2023/08/04 04:32:57;;;;;;;2.10;0.73;;;;;;;;;;5029545;28;20123;-80
2023/08/04 04:35:24;;;;;;;1.52;1.00;;;;;;;;;;5048701;28;20680;-79
2023/08/04 04:37:50;;;;;;;2.70;0.80;;;;;;;;;;5049621;28;20041;-79
2023/08/04 04:40:17;;;;;;;3.00;0.80;;;;;;;;;;5047467;28;20048;-80
2023/08/04 04:42:44;;;;;;;1.58;0.73;;;;;;;;;;5048636;28;20131;-80
2023/08/04 04:45:11;;;;;;;4.80;0.98;;;;;;;;;;5048682;28;20044;-78
2023/08/04 04:47:37;;;;;;;2.97;0.80;;;;;;;;;;5030954;28;20073;-80
2023/08/04 04:50:04;;;;;;;2.35;0.98;;;;;;;;;;5021113;28;20040;-79
2023/08/04 04:52:32;;;;;;;2.53;1.00;;;;;;;;;;5029961;28;20053;-81
2023/08/04 04:55:01;;;;;;;4.07;0.90;;;;;;;;;;5029823;28;20395;-80
2023/08/04 04:57:28;;;;;;;2.70;0.80;;;;;;;;;;5011430;28;20169;-81
2023/08/04 04:59:55;;;;;;;2.22;0.90;;;;;;;;;;5028029;28;20365;-77
2023/08/04 05:02:23;;;;;;;1.35;0.90;;;;;;;;;;5020281;28;20049;-80
2023/08/04 05:04:50;;;;;;;1.80;0.88;;;;;;;;;;5021481;28;20527;-81
2023/08/04 05:07:16;;;;;;;3.10;0.82;;;;;;;;;;5046025;28;20568;-80
2023/08/04 05:09:43;;;;;;;3.45;1.35;;;;;;;;;;5026718;28;20045;-79
2023/08/04 05:12:09;;;;;;;3.03;1.67;;;;;;;;;;5025351;28;20510;-78
2023/08/04 05:14:40;;;;;;;2.05;1.30;;;;;;;;;;5046227;28;20102;-79
2023/08/04 05:17:12;;;;;;;3.00;1.20;;;;;;;;;;5045142;28;20622;-81
2023/08/04 05:19:38;;;;;;;3.35;1.50;;;;;;;;;;5039686;28;20048;-78
2023/08/04 05:22:05;;;;;;;2.25;1.15;;;;;;;;;;5017086;28;20044;-78
2023/08/04 05:24:32;;;;;;;2.83;1.20;;;;;;;;;;5045392;28;21127;-80
2023/08/04 05:26:59;;;;;;;3.13;1.08;;;;;;;;;;5028030;28;20133;-79
2023/08/04 05:29:25;;;;;;;2.25;0.90;;;;;;;;;;5027045;28;20108;-78
2023/08/04 05:31:52;;;;;;;2.75;1.05;;;;;;;;;;5029105;28;20049;-79
2023/08/04 05:34:19;;;;;;;1.13;0.77;;;;;;;;;;5042835;28;20453;-78
2023/08/04 05:36:45;;;;;;;2.75;0.90;;;;;;;;;;5047336;28;20045;-80
2023/08/04 05:39:12;;;;;;;3.75;1.10;;;;;;;;;;5045256;28;20041;-80
2023/08/04 05:41:38;;;;;;;2.67;1.00;;;;;;;;;;5045807;28;20037;-80
2023/08/04 05:44:05;;;;;;;2.80;1.02;;;;;;;;;;5047433;28;20036;-79
2023/08/04 05:46:31;;;;;;;1.92;1.00;;;;;;;;;;5047444;28;20099;-80
2023/08/04 05:48:58;;;;;;;3.45;1.00;;;;;;;;;;5049244;28;20045;-80
2023/08/04 05:51:25;;;;;;;2.58;0.88;;;;;;;;;;5048161;28;20095;-79
2023/08/04 05:53:51;;;;;;;2.55;1.00;;;;;;;;;;5010060;28;20048;-79
2023/08/04 05:56:18;;;;;;;1.10;0.70;;;;;;;;;;5043934;28;20049;-79
2023/08/04 05:58:44;;;;;;;1.75;0.85;;;;;;;;;;5051248;28;20071;-78
2023/08/04 06:01:11;;;;;;;2.75;0.93;;;;;;;;;;5026824;28;20052;-80
2023/08/04 06:03:37;;;;;;;1.52;0.98;;;;;;;;;;5047737;28;20158;-79
2023/08/04 06:06:04;;;;;;;1.48;0.88;;;;;;;;;;5045803;28;20466;-78
2023/08/04 06:08:30;;;;;;;5.65;0.70;;;;;;;;;;5046050;28;21141;-80
2023/08/04 06:10:58;;;;;;;2.40;0.70;;;;;;;;;;5045478;28;20041;-81
2023/08/04 06:13:24;;;;;;;1.20;0.90;;;;;;;;;;5042369;28;20059;-81
2023/08/04 06:15:51;;;;;;;3.33;0.82;;;;;;;;;;5047438;28;20094;-79
2023/08/04 06:18:18;;;;;;;1.13;0.70;;;;;;;;;;5013023;28;20099;-81
2023/08/04 06:20:47;;;;;;;1.02;0.75;;;;;;;;;;5029010;28;20442;-80
2023/08/04 06:23:14;;;;;;;2.88;0.93;;;;;;;;;;5046263;28;20045;-79
2023/08/04 06:25:40;;;;;;;1.58;1.00;;;;;;;;;;5045061;28;20127;-80
2023/08/04 06:28:07;;;;;;;4.50;0.77;;;;;;;;;;5045827;28;20033;-79
2023/08/04 06:30:34;;;;;;;3.08;0.80;;;;;;;;;;5029620;28;20051;-80
2023/08/04 06:33:00;;;;;;;2.15;1.27;;;;;;;;;;5049344;28;20037;-79
2023/08/04 06:35:27;;;;;;;2.95;0.90;;;;;;;;;;5045167;28;20073;-80
2023/08/04 06:37:54;;;;;;;4.25;0.80;;;;;;;;;;5045696;28;20099;-80
2023/08/04 06:40:20;;;;;;;2.28;0.88;;;;;;;;;;5044511;28;20588;-80
2023/08/04 06:42:47;;;;;;;2.42;1.10;;;;;;;;;;5048244;28;20720;-79
2023/08/04 06:45:15;;;;;;;2.95;1.02;;;;;;;;;;5049445;28;20055;-78
2023/08/04 06:47:41;;;;;;;5.38;1.23;;;;;;;;;;5049571;28;20068;-80
2023/08/04 06:50:08;;;;;;;3.10;1.00;;;;;;;;;;5031835;28;20069;-81
2023/08/04 06:52:34;;;;;;;2.35;0.88;;;;;;;;;;5052315;28;20073;-79
2023/08/04 06:55:01;;;;;;;3.63;0.90;;;;;;;;;;5054230;28;20161;-79
2023/08/04 06:57:31;;;;;;;3.47;1.20;;;;;;;;;;5049570;28;20037;-79
2023/08/04 06:59:58;;;;;;;2.55;0.90;;;;;;;;;;5026553;28;20061;-79
2023/08/04 07:02:24;;;;;;;4.10;1.00;;;;;;;;;;5043091;28;20056;-82
2023/08/04 07:04:51;;;;;;;1.63;0.88;;;;;;;;;;5029073;28;20041;-80
2023/08/04 07:07:17;;;;;;;1.85;0.90;;;;;;;;;;5047891;28;20043;-78
2023/08/04 07:09:44;;;;;;;1.77;0.70;;;;;;;;;;5049994;28;20430;-80
2023/08/04 07:12:10;;;;;;;4.40;1.10;;;;;;;;;;5013049;28;20468;-79
2023/08/04 07:14:37;;;;;;;4.10;1.00;;;;;;;;;;5050154;28;20052;-79
2023/08/04 07:17:04;;;;;;;2.45;1.10;;;;;;;;;;5027947;28;20045;-81
2023/08/04 07:19:30;;;;;;;1.63;0.90;;;;;;;;;;5049113;28;20045;-79
2023/08/04 07:21:57;;;;;;;2.65;1.00;;;;;;;;;;5048767;28;20640;-80
2023/08/04 07:24:24;;;;;;;1.73;0.98;;;;;;;;;;5048242;28;20087;-81
2023/08/04 07:26:52;;;;;;;4.70;1.27;;;;;;;;;;5048097;28;20045;-81
2023/08/04 07:29:19;;;;;;;3.40;1.10;;;;;;;;;;5047893;28;20106;-79
2023/08/04 07:31:46;;;;;;;3.25;0.98;;;;;;;;;;5031965;28;20062;-80
2023/08/04 07:34:12;;;;;;;3.42;1.00;;;;;;;;;;5050027;28;20052;-81
2023/08/04 07:36:39;;;;;;;2.83;1.10;;;;;;;;;;5029892;28;20064;-81
2023/08/04 07:39:06;;;;;;;2.90;1.38;;;;;;;;;;5051316;28;20041;-80
2023/08/04 07:41:32;;;;;;;2.22;1.52;;;;;;;;;;5014638;28;20060;-77
2023/08/04 07:44:03;;;;;;;2.70;1.40;;;;;;;;;;5008864;28;20072;-79
2023/08/04 07:46:30;;;;;;;4.43;1.75;;;;;;;;;;5043447;28;20110;-80
2023/08/04 07:48:57;;;;;;;3.42;1.48;;;;;;;;;;5051562;28;20049;-78
2023/08/04 07:51:23;;;;;;;2.70;1.30;;;;;;;;;;5029671;28;20049;-79
2023/08/04 07:53:50;;;;;;;2.53;1.60;;;;;;;;;;5053765;28;20328;-79
2023/08/04 07:56:17;;;;;;;5.82;1.73;;;;;;;;;;5043549;28;20097;-80
2023/08/04 07:58:44;;;;;;;4.03;1.80;;;;;;;;;;5038841;28;20079;-79
2023/08/04 08:01:11;;;;;;;5.70;1.40;;;;;;;;;;5016836;28;20547;-80
2023/08/04 08:03:38;;;;;;;4.82;1.80;;;;;;;;;;5053869;28;20056;-78
2023/08/04 08:06:04;;;;;;;5.10;1.70;;;;;;;;;;5013375;28;20037;-79
2023/08/04 08:08:31;;;;;;;2.47;1.60;;;;;;;;;;5033381;28;20063;-80
2023/08/04 08:10:58;;;;;;;4.35;1.50;;;;;;;;;;5037559;28;20048;-79
2023/08/04 08:13:25;;;;;;;2.60;1.80;;;;;;;;;;5034153;28;20445;-80
2023/08/04 08:15:52;;;;;;;2.55;1.67;;;;;;;;;;5040226;28;20052;-80
2023/08/04 08:18:18;;;;;;;2.80;1.45;;;;;;;;;;5046218;28;20106;-79
2023/08/04 08:20:45;;;;;;;4.25;1.50;;;;;;;;;;5048151;28;20143;-79
2023/08/04 08:23:11;;;;;;;4.72;1.40;;;;;;;;;;5017391;28;20184;-81
2023/08/04 08:25:38;;;;;;;2.05;1.40;;;;;;;;;;5047187;28;20056;-80
2023/08/04 08:28:05;;;;;;;1.75;1.30;;;;;;;;;;5024025;28;20044;-80
2023/08/04 08:30:31;;;;;;;2.63;1.45;;;;;;;;;;5042415;28;20056;-80
2023/08/04 08:32:58;;;;;;;2.60;1.40;;;;;;;;;;5028222;28;20045;-79
2023/08/04 08:35:24;;;;;;;2.00;1.30;;;;;;;;;;5044073;28;20526;-79
2023/08/04 08:37:51;;;;;;;3.78;1.30;;;;;;;;;;5036131;28;20045;-79
2023/08/04 08:40:19;;;;;;;2.97;1.30;;;;;;;;;;5030899;28;20049;-80
2023/08/04 08:42:45;;;;;;;2.67;1.55;;;;;;;;;;5040300;28;20098;-81
2023/08/04 08:45:12;;;;;;;2.03;1.42;;;;;;;;;;5048409;28;20060;-80
2023/08/04 08:47:39;;;;;;;2.17;1.60;;;;;;;;;;5046345;28;20049;-81
2023/08/04 08:50:06;;;;;;;3.85;1.77;;;;;;;;;;5045142;28;20048;-80
2023/08/04 08:52:37;;;;;;;2.13;1.60;;;;;;;;;;5040854;28;20045;-80
2023/08/04 08:55:04;;;;;;;2.72;1.70;;;;;;;;;;5040263;28;20042;-79
2023/08/04 08:57:32;;;;;;;2.65;1.60;;;;;;;;;;5047345;28;20053;-80
2023/08/04 09:00:02;;;;;;;2.05;1.40;;;;;;;;;;5031180;28;20037;-82
2023/08/04 09:02:29;;;;;;;1.02;0.90;;;;;;;;;;5059825;28;20231;-81
2023/08/04 09:04:56;;;;;;;3.03;1.10;;;;;;;;;;5040078;28;20121;-82
2023/08/04 09:07:23;;;;;;;2.05;1.10;;;;;;;;;;5042939;28;20072;-79
2023/08/04 09:09:49;;;;;;;2.00;1.15;;;;;;;;;;5023561;28;20571;-79
2023/08/04 09:12:16;;;;;;;1.13;0.90;;;;;;;;;;5038628;28;20079;-80
2023/08/04 09:14:51;;;;;;;1.77;1.13;;;;;;;;;;5042346;28;20040;-80
2023/08/04 09:17:31;;;;;;;1.83;1.20;;;;;;;;;;5026909;28;20045;-81
2023/08/04 09:19:57;;;;;;;2.55;1.27;;;;;;;;;;5028202;28;20048;-80
2023/08/04 09:22:24;;;;;;;2.42;1.48;;;;;;;;;;5013712;28;20055;-81
2023/08/04 09:25:04;;;;;;;4.18;2.20;;;;;;;;;;5029330;28;20104;-81
2023/08/04 09:27:31;;;;;;;2.38;2.08;;;;;;;;;;5036132;28;20471;-80
2023/08/04 09:30:01;;;;;;;2.53;1.85;;;;;;;;;;5043916;28;20495;-79
2023/08/04 09:32:28;;;;;;;1.83;1.45;;;;;;;;;;5035518;28;20060;-80
2023/08/04 09:34:58;;;;;;;1.75;1.05;;;;;;;;;;5042862;28;20057;-80
2023/08/04 09:37:25;;;;;;;1.33;0.70;;;;;;;;;;5036378;28;20052;-78
2023/08/04 09:39:52;;;;;;;1.00;0.80;;;;;;;;;;5045799;28;20044;-78
2023/08/04 09:42:21;;;;;;;1.67;1.00;;;;;;;;;;5041088;28;20102;-82
2023/08/04 09:44:54;;;;;;;1.00;0.75;;;;;;;;;;5031216;28;20080;-79
2023/08/04 09:47:24;;;;;;;1.95;0.95;;;;;;;;;;5021102;28;20423;-79
2023/08/04 09:49:51;;;;;;;1.50;0.80;;;;;;;;;;5029173;28;20565;-79
2023/08/04 09:52:22;;;;;;;3.30;0.90;;;;;;;;;;5033203;28;20049;-80
2023/08/04 09:54:53;;;;;;;2.22;0.70;;;;;;;;;;5044842;28;20277;-79
2023/08/04 09:57:22;;;;;;;2.63;1.00;;;;;;;;;;5030762;28;20065;-79
2023/08/04 09:59:49;;;;;;;1.98;1.10;;;;;;;;;;5041588;28;20045;-81
2023/08/04 10:02:17;;;;;;;2.20;1.00;;;;;;;;;;5021916;28;20054;-80
2023/08/04 10:04:51;;;;;;;2.20;1.10;;;;;;;;;;5034740;28;20041;-81
2023/08/04 10:07:18;;;;;;;2.63;1.20;;;;;;;;;;5039026;28;20060;-79
2023/08/04 10:09:46;;;;;;;1.25;1.13;;;;;;;;;;5039213;28;20608;-81
2023/08/04 10:12:13;;;;;;;1.50;1.08;;;;;;;;;;5031422;28;21210;-77
2023/08/04 10:14:40;;;;;;;1.25;1.10;;;;;;;;;;5044655;28;20037;-80
2023/08/04 10:17:07;;;;;;;1.65;0.70;;;;;;;;;;5048663;28;20045;-78
2023/08/04 10:19:34;;;;;;;0.90;0.60;;;;;;;;;;5049964;28;20064;-80
2023/08/04 10:22:08;;;;;;;1.13;0.70;;;;;;;;;;5022007;28;20053;-80
2023/08/04 10:24:35;;;;;;;0.60;0.50;;;;;;;;;;5049646;28;20499;-80
2023/08/04 10:27:11;;;;;;;1.27;0.60;;;;;;;;;;5037213;28;20038;-81
2023/08/04 10:29:37;;;;;;;1.25;0.50;;;;;;;;;;5020915;28;20488;-81
2023/08/04 10:32:07;;;;;;;2.08;0.80;;;;;;;;;;5025922;28;20046;-80
2023/08/04 10:34:35;;;;;;;4.93;0.90;;;;;;;;;;5040267;28;20075;-81
2023/08/04 10:37:04;;;;;;;1.60;1.08;;;;;;;;;;5046521;28;20064;-79
2023/08/04 10:39:57;;;;;;;1.70;1.05;;;;;;;;;;5043441;28;20045;-80
2023/08/04 10:42:27;;;;;;;1.73;0.90;;;;;;;;;;5029519;28;20173;-82
2023/08/04 10:44:54;;;;;;;2.20;0.95;;;;;;;;;;5045470;28;20053;-80
2023/08/04 10:47:39;;;;;;;1.58;1.02;;;;;;;;;;5040173;28;20041;-80
2023/08/04 10:50:25;;;;;;;1.33;0.85;;;;;;;;;;5047557;28;20049;-80
2023/08/04 10:52:51;;;;;;;1.38;0.80;;;;;;;;;;5033334;28;20056;-79
2023/08/04 10:55:18;;;;;;;1.65;0.82;;;;;;;;;;5048663;28;20037;-80
2023/08/04 10:57:44;;;;;;;1.40;0.80;;;;;;;;;;5026368;28;20077;-80
2023/08/04 11:00:11;;;;;;;1.17;0.80;;;;;;;;;;5005513;28;20049;-79
2023/08/04 11:02:38;;;;;;;1.58;0.80;;;;;;;;;;5042449;28;20561;-80
2023/08/04 11:05:07;;;;;;;1.08;0.80;;;;;;;;;;5026195;28;20040;-81
2023/08/04 11:07:34;;;;;;;2.28;1.17;;;;;;;;;;5042934;28;20045;-80
2023/08/04 11:10:05;;;;;;;2.25;1.00;;;;;;;;;;5041133;28;20424;-79
2023/08/04 11:12:32;;;;;;;2.25;1.13;;;;;;;;;;5014871;28;20114;-81
2023/08/04 11:15:00;;;;;;;3.55;1.70;;;;;;;;;;5015808;28;20041;-81
2023/08/04 11:17:27;;;;;;;3.78;1.80;;;;;;;;;;5023808;28;20115;-80
2023/08/04 11:19:54;;;;;;;2.28;1.50;;;;;;;;;;5023243;28;20149;-80
2023/08/04 11:22:22;;;;;;;2.45;1.40;;;;;;;;;;5028567;28;20049;-79
2023/08/04 11:24:49;;;;;;;1.63;1.10;;;;;;;;;;5026587;28;20053;-81
2023/08/04 11:27:16;;;;;;;4.00;1.60;;;;;;;;;;5045284;28;20044;-80
2023/08/04 11:29:43;;;;;;;1.90;1.40;;;;;;;;;;5043919;28;20604;-79
2023/08/04 11:32:09;;;;;;;2.67;1.63;;;;;;;;;;5012224;28;20065;-78
2023/08/04 11:34:38;;;;;;;4.20;1.50;;;;;;;;;;5033428;28;20050;-82
2023/08/04 11:37:05;;;;;;;2.25;1.52;;;;;;;;;;5057012;28;20037;-81
2023/08/04 11:39:31;;;;;;;1.90;1.60;;;;;;;;;;5055925;28;20045;-80
2023/08/04 11:41:58;;;;;;;3.22;1.80;;;;;;;;;;5033246;28;20049;-81
2023/08/04 11:44:24;;;;;;;2.22;1.63;;;;;;;;;;5048993;28;20122;-81
2023/08/04 11:46:51;;;;;;;3.47;1.50;;;;;;;;;;5049685;28;20045;-82
2023/08/04 11:49:18;;;;;;;4.10;1.80;;;;;;;;;;5031875;28;20040;-80
2023/08/04 11:51:45;;;;;;;2.38;1.33;;;;;;;;;;5050631;28;20059;-82
2023/08/04 11:54:19;;;;;;;2.22;1.30;;;;;;;;;;5030891;28;20046;-79
2023/08/04 11:56:45;;;;;;;2.63;1.20;;;;;;;;;;5043216;28;20055;-80
2023/08/04 11:59:12;;;;;;;2.20;1.13;;;;;;;;;;5050416;28;20110;-78
2023/08/04 12:01:39;;;;;;;2.92;1.30;;;;;;;;;;5051751;28;20029;-79
2023/08/04 12:04:25;;;;;;;2.63;1.20;;;;;;;;;;5052366;28;21403;-79
2023/08/04 12:07:03;;;;;;;4.90;1.20;;;;;;;;;;5028754;28;20061;-79
2023/08/04 12:09:30;;;;;;;5.85;1.08;;;;;;;;;;5051312;28;20053;-78
2023/08/04 12:11:57;;;;;;;3.30;0.85;;;;;;;;;;5068985;28;20033;-78
2023/08/04 12:14:23;;;;;;;1.77;1.00;;;;;;;;;;5037108;28;20041;-79
2023/08/04 12:16:54;;;;;;;2.40;1.20;;;;;;;;;;5048885;28;20037;-80
2023/08/04 12:19:22;;;;;;;1.55;1.00;;;;;;;;;;5031861;28;20060;-79
2023/08/04 12:21:52;;;;;;;2.75;1.13;;;;;;;;;;5049132;28;20088;-79
2023/08/04 12:24:19;;;;;;;2.40;1.15;;;;;;;;;;5029905;28;20523;-79
2023/08/04 12:26:46;;;;;;;2.40;1.05;;;;;;;;;;5046192;28;20131;-79
2023/08/04 12:29:13;;;;;;;2.13;1.13;;;;;;;;;;5028808;28;20423;-79
2023/08/04 12:31:40;;;;;;;4.07;1.00;;;;;;;;;;5031174;28;20071;-81
2023/08/04 12:34:08;;;;;;;2.22;0.90;;;;;;;;;;5015716;28;20098;-78
2023/08/04 12:36:35;;;;;;;2.92;0.90;;;;;;;;;;5030045;28;20068;-82
2023/08/04 12:39:03;;;;;;;4.68;0.90;;;;;;;;;;5049472;28;20114;-81
2023/08/04 12:41:33;;;;;;;1.65;0.98;;;;;;;;;;5046653;28;20049;-80
2023/08/04 12:43:59;;;;;;;2.00;1.00;;;;;;;;;;5048135;28;20068;-80
2023/08/04 12:46:26;;;;;;;1.05;0.80;;;;;;;;;;5029579;28;20045;-80
2023/08/04 12:48:53;;;;;;;6.88;1.20;;;;;;;;;;5031237;28;20053;-79
2023/08/04 12:51:20;;;;;;;0.77;0.70;;;;;;;;;;5031873;28;20064;-81
2023/08/04 12:53:47;;;;;;;2.40;0.80;;;;;;;;;;5049575;28;20044;-80
2023/08/04 12:56:14;;;;;;;1.98;0.73;;;;;;;;;;5027991;28;20480;-80
2023/08/04 12:58:40;;;;;;;2.58;0.60;;;;;;;;;;5050069;28;20065;-80
2023/08/04 13:01:07;;;;;;;2.15;0.68;;;;;;;;;;5048483;28;20040;-79
2023/08/04 13:03:33;;;;;;;0.68;0.60;;;;;;;;;;5045973;28;20438;-80
2023/08/04 13:06:00;;;;;;;1.13;0.60;;;;;;;;;;5024339;28;20128;-80
2023/08/04 13:08:27;;;;;;;0.65;0.40;;;;;;;;;;5009647;28;20072;-78
2023/08/04 13:10:53;;;;;;;3.83;0.50;;;;;;;;;;5007994;28;20071;-80
2023/08/04 13:13:20;;;;;;;1.35;0.50;;;;;;;;;;5007915;28;20045;-81
2023/08/04 13:15:47;;;;;;;0.70;0.45;;;;;;;;;;5020185;28;20081;-79
2023/08/04 13:18:14;;;;;;;0.70;0.30;;;;;;;;;;5009656;28;20746;-80
2023/08/04 13:20:41;;;;;;;1.45;0.38;;;;;;;;;;5031693;28;20245;-81
2023/08/04 13:23:08;;;;;;;1.08;0.45;;;;;;;;;;5009666;28;20049;-81
2023/08/04 13:25:38;;;;;;;2.28;0.50;;;;;;;;;;5045913;28;20345;-80
2023/08/04 13:28:05;;;;;;;0.80;0.50;;;;;;;;;;5053059;28;20045;-78
2023/08/04 13:30:32;;;;;;;0.65;0.43;;;;;;;;;;5034295;28;20053;-77
2023/08/04 13:32:59;;;;;;;0.70;0.40;;;;;;;;;;5052838;28;20041;-79
2023/08/04 13:35:26;;;;;;;0.82;0.52;;;;;;;;;;5030821;28;20115;-79
2023/08/04 13:37:54;;;;;;;2.58;0.60;;;;;;;;;;5027304;28;20052;-79
2023/08/04 13:40:21;;;;;;;0.47;0.45;;;;;;;;;;5025373;28;20041;-80
2023/08/04 13:42:48;;;;;;;0.75;0.40;;;;;;;;;;5045272;28;20130;-77
2023/08/04 13:45:14;;;;;;;2.25;0.57;;;;;;;;;;5047764;28;20044;-78
2023/08/04 13:47:41;;;;;;;2.70;0.60;;;;;;;;;;5047250;28;20045;-78
2023/08/04 13:50:08;;;;;;;0.60;0.40;;;;;;;;;;5046507;28;20033;-79
2023/08/04 13:52:34;;;;;;;0.85;0.45;;;;;;;;;;5027399;28;20392;-80
2023/08/04 13:55:01;;;;;;;0.50;0.40;;;;;;;;;;5044310;28;20574;-80
2023/08/04 13:57:32;;;;;;;1.27;0.47;;;;;;;;;;5043408;28;20049;-79
2023/08/04 14:00:08;;;;;;;0.98;0.50;;;;;;;;;;5043819;28;20044;-78
2023/08/04 14:02:35;;;;;;;1.52;0.55;;;;;;;;;;5045714;28;20392;-79
2023/08/04 14:05:02;;;;;;;2.05;0.65;;;;;;;;;;5028387;28;20503;-80
2023/08/04 14:07:29;;;;;;;1.17;0.50;;;;;;;;;;5052730;28;20048;-82
2023/08/04 14:09:56;;;;;;;1.77;0.70;;;;;;;;;;5054702;28;20116;-81
2023/08/04 14:12:24;;;;;;;0.93;0.60;;;;;;;;;;5050874;28;20411;-81
2023/08/04 14:14:52;;;;;;;1.05;0.47;;;;;;;;;;5034974;28;20045;-81
2023/08/04 14:17:19;;;;;;;1.95;0.70;;;;;;;;;;5051306;28;20037;-80
2023/08/04 14:19:46;;;;;;;0.65;0.40;;;;;;;;;;5042952;28;20049;-81
2023/08/04 14:22:13;;;;;;;1.30;0.57;;;;;;;;;;5011371;28;20047;-79
2023/08/04 14:24:39;;;;;;;0.88;0.60;;;;;;;;;;5038784;28;20041;-81
2023/08/04 14:27:07;;;;;;;1.05;0.50;;;;;;;;;;5041837;28;20045;-80
2023/08/04 14:29:34;;;;;;;1.70;0.60;;;;;;;;;;5040076;28;20057;-80
2023/08/04 14:32:01;;;;;;;2.97;0.75;;;;;;;;;;5041380;28;20048;-81
2023/08/04 14:34:29;;;;;;;1.27;0.70;;;;;;;;;;5040947;28;20726;-80
2023/08/04 14:36:55;;;;;;;1.00;0.60;;;;;;;;;;5039096;28;20471;-78
2023/08/04 14:39:22;;;;;;;1.13;0.60;;;;;;;;;;5039801;28;20064;-80
2023/08/04 14:41:49;;;;;;;2.13;0.70;;;;;;;;;;5042276;28;20152;-81
2023/08/04 14:44:16;;;;;;;1.08;0.60;;;;;;;;;;5039628;28;20041;-80